sensor_id;sensor_type;location;lat;lon;timestamp;P1;durP1;ratioP1;P2;durP2;ratioP2
46330;SDS011;32049;52.346;4.870;2022-08-19T00:02:01;7.03;;;6.37;;
46330;SDS011;32049;52.346;4.870;2022-08-19T00:05:04;6.90;;;6.20;;
46330;SDS011;32049;52.346;4.870;2022-08-19T00:08:09;9.87;;;5.50;;
46330;SDS011;32049;52.346;4.870;2022-08-19T00:11:11;9.30;;;7.77;;
46330;SDS011;32049;52.346;4.870;2022-08-19T00:14:53;7.13;;;6.23;;
46330;SDS011;32049;52.346;4.870;2022-08-19T00:18:34;8.67;;;6.47;;
46330;SDS011;32049;52.346;4.870;2022-08-19T00:21:37;9.30;;;7.87;;
46330;SDS011;32049;52.346;4.870;2022-08-19T00:25:08;9.13;;;7.53;;
46330;SDS011;32049;52.346;4.870;2022-08-19T00:28:28;10.47;;;7.83;;
46330;SDS011;32049;52.346;4.870;2022-08-19T00:31:55;9.13;;;7.70;;
46330;SDS011;32049;52.346;4.870;2022-08-19T00:35:14;11.63;;;8.23;;
46330;SDS011;32049;52.346;4.870;2022-08-19T00:38:43;9.50;;;7.40;;
46330;SDS011;32049;52.346;4.870;2022-08-19T00:42:07;8.70;;;6.73;;
46330;SDS011;32049;52.346;4.870;2022-08-19T00:45:37;9.77;;;8.67;;
46330;SDS011;32049;52.346;4.870;2022-08-19T00:49:16;12.00;;;7.97;;
46330;SDS011;32049;52.346;4.870;2022-08-19T00:52:32;12.63;;;9.63;;
46330;SDS011;32049;52.346;4.870;2022-08-19T00:56:16;10.50;;;9.37;;
46330;SDS011;32049;52.346;4.870;2022-08-19T00:59:54;13.90;;;10.80;;
46330;SDS011;32049;52.346;4.870;2022-08-19T01:03:21;13.90;;;11.57;;
46330;SDS011;32049;52.346;4.870;2022-08-19T01:07:56;13.53;;;10.40;;
46330;SDS011;32049;52.346;4.870;2022-08-19T01:14:36;12.67;;;10.83;;
46330;SDS011;32049;52.346;4.870;2022-08-19T01:17:48;13.20;;;10.70;;
46330;SDS011;32049;52.346;4.870;2022-08-19T01:20:45;17.13;;;10.90;;
46330;SDS011;32049;52.346;4.870;2022-08-19T01:24:08;13.30;;;11.40;;
46330;SDS011;32049;52.346;4.870;2022-08-19T01:27:14;16.37;;;11.77;;
46330;SDS011;32049;52.346;4.870;2022-08-19T01:31:00;15.75;;;12.48;;
46330;SDS011;32049;52.346;4.870;2022-08-19T01:34:22;15.00;;;12.07;;
46330;SDS011;32049;52.346;4.870;2022-08-19T01:37:20;15.00;;;11.03;;
46330;SDS011;32049;52.346;4.870;2022-08-19T01:40:37;13.57;;;11.67;;
46330;SDS011;32049;52.346;4.870;2022-08-19T01:43:45;13.73;;;12.33;;
46330;SDS011;32049;52.346;4.870;2022-08-19T01:47:06;15.43;;;11.03;;
46330;SDS011;32049;52.346;4.870;2022-08-19T01:50:37;13.40;;;11.83;;
46330;SDS011;32049;52.346;4.870;2022-08-19T01:54:13;13.20;;;10.77;;
46330;SDS011;32049;52.346;4.870;2022-08-19T01:57:24;15.63;;;10.33;;
46330;SDS011;32049;52.346;4.870;2022-08-19T02:01:17;12.43;;;10.43;;
46330;SDS011;32049;52.346;4.870;2022-08-19T02:04:22;15.80;;;11.95;;
46330;SDS011;32049;52.346;4.870;2022-08-19T02:07:12;12.23;;;10.93;;
46330;SDS011;32049;52.346;4.870;2022-08-19T02:10:02;13.93;;;11.33;;
46330;SDS011;32049;52.346;4.870;2022-08-19T02:13:02;11.70;;;10.37;;
46330;SDS011;32049;52.346;4.870;2022-08-19T02:15:50;14.83;;;10.93;;
46330;SDS011;32049;52.346;4.870;2022-08-19T02:18:37;13.67;;;10.60;;
46330;SDS011;32049;52.346;4.870;2022-08-19T02:21:25;14.37;;;11.60;;
46330;SDS011;32049;52.346;4.870;2022-08-19T02:24:13;12.27;;;10.47;;
46330;SDS011;32049;52.346;4.870;2022-08-19T02:27:00;12.40;;;10.17;;
46330;SDS011;32049;52.346;4.870;2022-08-19T02:30:53;18.00;;;11.87;;
46330;SDS011;32049;52.346;4.870;2022-08-19T02:34:08;13.60;;;10.80;;
46330;SDS011;32049;52.346;4.870;2022-08-19T02:37:22;16.23;;;11.43;;
46330;SDS011;32049;52.346;4.870;2022-08-19T02:40:47;13.33;;;10.70;;
46330;SDS011;32049;52.346;4.870;2022-08-19T02:43:57;12.93;;;11.27;;
46330;SDS011;32049;52.346;4.870;2022-08-19T02:47:19;11.73;;;10.37;;
46330;SDS011;32049;52.346;4.870;2022-08-19T02:50:43;16.00;;;11.77;;
46330;SDS011;32049;52.346;4.870;2022-08-19T02:53:53;13.57;;;10.77;;
46330;SDS011;32049;52.346;4.870;2022-08-19T02:56:56;15.60;;;11.23;;
46330;SDS011;32049;52.346;4.870;2022-08-19T03:00:12;18.70;;;12.53;;
46330;SDS011;32049;52.346;4.870;2022-08-19T03:03:16;14.10;;;11.57;;
46330;SDS011;32049;52.346;4.870;2022-08-19T03:06:49;15.70;;;12.23;;
46330;SDS011;32049;52.346;4.870;2022-08-19T03:09:54;15.30;;;12.95;;
46330;SDS011;32049;52.346;4.870;2022-08-19T03:13:16;17.37;;;11.80;;
46330;SDS011;32049;52.346;4.870;2022-08-19T03:16:50;15.30;;;12.07;;
46330;SDS011;32049;52.346;4.870;2022-08-19T03:20:31;14.77;;;12.50;;
46330;SDS011;32049;52.346;4.870;2022-08-19T03:24:06;18.23;;;12.57;;
46330;SDS011;32049;52.346;4.870;2022-08-19T03:28:11;20.20;;;12.47;;
46330;SDS011;32049;52.346;4.870;2022-08-19T03:31:37;15.03;;;12.60;;
46330;SDS011;32049;52.346;4.870;2022-08-19T03:35:32;20.20;;;13.23;;
46330;SDS011;32049;52.346;4.870;2022-08-19T03:39:01;20.37;;;15.83;;
46330;SDS011;32049;52.346;4.870;2022-08-19T03:42:33;20.97;;;15.43;;
46330;SDS011;32049;52.346;4.870;2022-08-19T03:46:11;18.40;;;14.80;;
46330;SDS011;32049;52.346;4.870;2022-08-19T03:49:42;22.63;;;17.17;;
46330;SDS011;32049;52.346;4.870;2022-08-19T03:53:06;22.23;;;17.90;;
46330;SDS011;32049;52.346;4.870;2022-08-19T03:56:03;21.83;;;18.23;;
46330;SDS011;32049;52.346;4.870;2022-08-19T03:58:59;22.07;;;16.57;;
46330;SDS011;32049;52.346;4.870;2022-08-19T04:06:28;24.60;;;18.23;;
46330;SDS011;32049;52.346;4.870;2022-08-19T04:09:26;29.67;;;20.07;;
46330;SDS011;32049;52.346;4.870;2022-08-19T04:13:08;26.90;;;20.73;;
46330;SDS011;32049;52.346;4.870;2022-08-19T04:16:08;24.60;;;19.63;;
46330;SDS011;32049;52.346;4.870;2022-08-19T04:19:38;28.57;;;19.97;;
46330;SDS011;32049;52.346;4.870;2022-08-19T04:23:27;33.50;;;24.33;;
46330;SDS011;32049;52.346;4.870;2022-08-19T04:26:58;28.13;;;22.00;;
46330;SDS011;32049;52.346;4.870;2022-08-19T04:30:18;36.30;;;24.33;;
46330;SDS011;32049;52.346;4.870;2022-08-19T04:33:57;34.37;;;23.17;;
46330;SDS011;32049;52.346;4.870;2022-08-19T04:37:07;30.90;;;23.77;;
46330;SDS011;32049;52.346;4.870;2022-08-19T04:40:29;34.10;;;23.07;;
46330;SDS011;32049;52.346;4.870;2022-08-19T04:43:51;34.20;;;23.57;;
46330;SDS011;32049;52.346;4.870;2022-08-19T04:50:36;33.87;;;23.80;;
46330;SDS011;32049;52.346;4.870;2022-08-19T04:54:15;36.80;;;24.70;;
46330;SDS011;32049;52.346;4.870;2022-08-19T04:57:31;35.03;;;24.53;;
46330;SDS011;32049;52.346;4.870;2022-08-19T05:01:04;33.90;;;24.37;;
46330;SDS011;32049;52.346;4.870;2022-08-19T05:08:20;39.20;;;26.08;;
46330;SDS011;32049;52.346;4.870;2022-08-19T05:11:43;36.37;;;25.73;;
46330;SDS011;32049;52.346;4.870;2022-08-19T05:14:31;36.80;;;25.07;;
46330;SDS011;32049;52.346;4.870;2022-08-19T05:17:23;42.17;;;26.40;;
46330;SDS011;32049;52.346;4.870;2022-08-19T05:20:22;40.97;;;25.33;;
46330;SDS011;32049;52.346;4.870;2022-08-19T05:23:29;42.93;;;26.60;;
46330;SDS011;32049;52.346;4.870;2022-08-19T05:26:29;40.33;;;26.23;;
46330;SDS011;32049;52.346;4.870;2022-08-19T05:29:18;36.37;;;26.83;;
46330;SDS011;32049;52.346;4.870;2022-08-19T05:32:08;38.97;;;25.80;;
46330;SDS011;32049;52.346;4.870;2022-08-19T05:34:57;37.93;;;25.10;;
46330;SDS011;32049;52.346;4.870;2022-08-19T05:37:44;36.97;;;24.33;;
46330;SDS011;32049;52.346;4.870;2022-08-19T05:40:38;35.90;;;23.33;;
46330;SDS011;32049;52.346;4.870;2022-08-19T05:43:25;42.33;;;27.30;;
46330;SDS011;32049;52.346;4.870;2022-08-19T05:46:34;44.57;;;27.40;;
46330;SDS011;32049;52.346;4.870;2022-08-19T05:52:56;42.57;;;27.67;;
46330;SDS011;32049;52.346;4.870;2022-08-19T05:56:09;43.50;;;27.07;;
46330;SDS011;32049;52.346;4.870;2022-08-19T06:02:28;40.70;;;26.73;;
46330;SDS011;32049;52.346;4.870;2022-08-19T06:05:42;35.00;;;23.93;;
46330;SDS011;32049;52.346;4.870;2022-08-19T06:09:03;38.57;;;26.27;;
46330;SDS011;32049;52.346;4.870;2022-08-19T06:12:13;44.77;;;27.40;;
46330;SDS011;32049;52.346;4.870;2022-08-19T06:15:34;44.83;;;25.70;;
46330;SDS011;32049;52.346;4.870;2022-08-19T06:18:49;45.97;;;28.87;;
46330;SDS011;32049;52.346;4.870;2022-08-19T06:22:12;42.10;;;27.43;;
46330;SDS011;32049;52.346;4.870;2022-08-19T06:26:20;57.13;;;33.20;;
46330;SDS011;32049;52.346;4.870;2022-08-19T06:29:27;55.70;;;31.17;;
46330;SDS011;32049;52.346;4.870;2022-08-19T06:32:58;51.70;;;31.87;;
46330;SDS011;32049;52.346;4.870;2022-08-19T06:36:22;49.03;;;31.37;;
46330;SDS011;32049;52.346;4.870;2022-08-19T06:43:52;64.97;;;36.73;;
46330;SDS011;32049;52.346;4.870;2022-08-19T06:46:42;60.20;;;32.67;;
46330;SDS011;32049;52.346;4.870;2022-08-19T06:53:33;54.93;;;32.77;;
46330;SDS011;32049;52.346;4.870;2022-08-19T06:56:25;58.97;;;32.97;;
46330;SDS011;32049;52.346;4.870;2022-08-19T06:59:27;58.93;;;32.40;;
46330;SDS011;32049;52.346;4.870;2022-08-19T07:02:19;59.10;;;32.43;;
46330;SDS011;32049;52.346;4.870;2022-08-19T07:05:07;66.83;;;35.37;;
46330;SDS011;32049;52.346;4.870;2022-08-19T07:07:56;62.50;;;32.47;;
46330;SDS011;32049;52.346;4.870;2022-08-19T07:10:50;62.33;;;33.53;;
46330;SDS011;32049;52.346;4.870;2022-08-19T07:13:38;73.40;;;36.67;;
46330;SDS011;32049;52.346;4.870;2022-08-19T07:16:54;69.03;;;36.43;;
46330;SDS011;32049;52.346;4.870;2022-08-19T07:19:42;63.50;;;35.07;;
46330;SDS011;32049;52.346;4.870;2022-08-19T07:22:33;67.20;;;35.07;;
46330;SDS011;32049;52.346;4.870;2022-08-19T07:25:25;66.40;;;35.27;;
46330;SDS011;32049;52.346;4.870;2022-08-19T07:28:18;65.77;;;33.80;;
46330;SDS011;32049;52.346;4.870;2022-08-19T07:31:11;61.47;;;32.27;;
46330;SDS011;32049;52.346;4.870;2022-08-19T07:34:00;64.67;;;31.93;;
46330;SDS011;32049;52.346;4.870;2022-08-19T07:36:49;61.77;;;34.00;;
46330;SDS011;32049;52.346;4.870;2022-08-19T07:39:38;68.23;;;33.73;;
46330;SDS011;32049;52.346;4.870;2022-08-19T07:42:25;63.13;;;31.90;;
46330;SDS011;32049;52.346;4.870;2022-08-19T07:45:15;59.87;;;31.10;;
46330;SDS011;32049;52.346;4.870;2022-08-19T07:48:03;50.63;;;29.33;;
46330;SDS011;32049;52.346;4.870;2022-08-19T07:51:03;56.63;;;30.70;;
46330;SDS011;32049;52.346;4.870;2022-08-19T07:53:55;48.23;;;28.90;;
46330;SDS011;32049;52.346;4.870;2022-08-19T07:56:42;54.50;;;29.13;;
46330;SDS011;32049;52.346;4.870;2022-08-19T07:59:30;48.87;;;27.50;;
46330;SDS011;32049;52.346;4.870;2022-08-19T08:02:18;50.80;;;27.80;;
46330;SDS011;32049;52.346;4.870;2022-08-19T08:05:06;46.13;;;27.10;;
46330;SDS011;32049;52.346;4.870;2022-08-19T08:08:17;48.07;;;25.43;;
46330;SDS011;32049;52.346;4.870;2022-08-19T08:11:43;53.47;;;26.83;;
46330;SDS011;32049;52.346;4.870;2022-08-19T08:14:55;41.30;;;23.60;;
46330;SDS011;32049;52.346;4.870;2022-08-19T08:17:44;33.00;;;20.47;;
46330;SDS011;32049;52.346;4.870;2022-08-19T08:25:22;28.40;;;16.58;;
46330;SDS011;32049;52.346;4.870;2022-08-19T08:28:25;30.27;;;16.15;;
46330;SDS011;32049;52.346;4.870;2022-08-19T08:31:19;27.17;;;15.38;;
46330;SDS011;32049;52.346;4.870;2022-08-19T08:34:59;42.47;;;19.45;;
46330;SDS011;32049;52.346;4.870;2022-08-19T08:38:07;31.33;;;17.33;;
46330;SDS011;32049;52.346;4.870;2022-08-19T08:45:03;20.27;;;12.75;;
46330;SDS011;32049;52.346;4.870;2022-08-19T08:48:29;20.63;;;12.15;;
46330;SDS011;32049;52.346;4.870;2022-08-19T08:51:22;23.58;;;11.80;;
46330;SDS011;32049;52.346;4.870;2022-08-19T08:54:20;19.40;;;11.57;;
46330;SDS011;32049;52.346;4.870;2022-08-19T08:57:39;17.48;;;9.02;;
46330;SDS011;32049;52.346;4.870;2022-08-19T09:00:45;16.65;;;9.60;;
46330;SDS011;32049;52.346;4.870;2022-08-19T09:03:40;16.45;;;8.43;;
46330;SDS011;32049;52.346;4.870;2022-08-19T09:06:40;12.30;;;7.78;;
46330;SDS011;32049;52.346;4.870;2022-08-19T09:09:40;17.63;;;8.07;;
46330;SDS011;32049;52.346;4.870;2022-08-19T09:12:53;15.65;;;7.32;;
46330;SDS011;32049;52.346;4.870;2022-08-19T09:15:56;16.23;;;7.55;;
46330;SDS011;32049;52.346;4.870;2022-08-19T09:18:49;11.88;;;7.30;;
46330;SDS011;32049;52.346;4.870;2022-08-19T09:21:40;10.52;;;6.93;;
46330;SDS011;32049;52.346;4.870;2022-08-19T09:24:28;15.50;;;6.50;;
46330;SDS011;32049;52.346;4.870;2022-08-19T09:27:31;15.13;;;7.55;;
46330;SDS011;32049;52.346;4.870;2022-08-19T09:30:30;13.00;;;7.30;;
46330;SDS011;32049;52.346;4.870;2022-08-19T09:33:20;12.85;;;7.45;;
46330;SDS011;32049;52.346;4.870;2022-08-19T09:36:08;12.90;;;7.60;;
46330;SDS011;32049;52.346;4.870;2022-08-19T09:38:57;12.27;;;7.72;;
46330;SDS011;32049;52.346;4.870;2022-08-19T09:41:45;16.83;;;8.20;;
46330;SDS011;32049;52.346;4.870;2022-08-19T09:49:44;12.30;;;7.50;;
46330;SDS011;32049;52.346;4.870;2022-08-19T09:56:33;15.98;;;7.13;;
46330;SDS011;32049;52.346;4.870;2022-08-19T10:00:07;14.98;;;6.30;;
46330;SDS011;32049;52.346;4.870;2022-08-19T10:03:20;14.57;;;7.28;;
46330;SDS011;32049;52.346;4.870;2022-08-19T10:06:35;12.05;;;7.03;;
46330;SDS011;32049;52.346;4.870;2022-08-19T10:10:08;14.85;;;7.15;;
46330;SDS011;32049;52.346;4.870;2022-08-19T10:13:10;14.50;;;6.55;;
46330;SDS011;32049;52.346;4.870;2022-08-19T10:16:26;13.75;;;6.65;;
46330;SDS011;32049;52.346;4.870;2022-08-19T10:22:26;15.77;;;7.05;;
46330;SDS011;32049;52.346;4.870;2022-08-19T10:25:27;13.32;;;7.13;;
46330;SDS011;32049;52.346;4.870;2022-08-19T10:28:22;13.63;;;6.60;;
46330;SDS011;32049;52.346;4.870;2022-08-19T10:31:45;12.38;;;7.03;;
46330;SDS011;32049;52.346;4.870;2022-08-19T10:34:51;11.82;;;6.85;;
46330;SDS011;32049;52.346;4.870;2022-08-19T10:38:51;11.85;;;6.03;;
46330;SDS011;32049;52.346;4.870;2022-08-19T10:42:49;11.63;;;6.55;;
46330;SDS011;32049;52.346;4.870;2022-08-19T10:46:07;7.65;;;5.70;;
46330;SDS011;32049;52.346;4.870;2022-08-19T10:49:48;12.25;;;5.95;;
46330;SDS011;32049;52.346;4.870;2022-08-19T10:53:32;9.90;;;5.47;;
46330;SDS011;32049;52.346;4.870;2022-08-19T10:56:24;9.05;;;5.18;;
46330;SDS011;32049;52.346;4.870;2022-08-19T10:59:40;8.98;;;4.95;;
46330;SDS011;32049;52.346;4.870;2022-08-19T11:03:25;11.18;;;5.43;;
46330;SDS011;32049;52.346;4.870;2022-08-19T11:06:23;10.40;;;6.53;;
46330;SDS011;32049;52.346;4.870;2022-08-19T11:10:11;10.75;;;4.80;;
46330;SDS011;32049;52.346;4.870;2022-08-19T11:13:35;9.30;;;5.13;;
46330;SDS011;32049;52.346;4.870;2022-08-19T11:17:26;10.10;;;5.35;;
46330;SDS011;32049;52.346;4.870;2022-08-19T11:20:46;12.23;;;4.22;;
46330;SDS011;32049;52.346;4.870;2022-08-19T11:24:13;8.25;;;4.05;;
46330;SDS011;32049;52.346;4.870;2022-08-19T11:27:30;7.07;;;3.90;;
46330;SDS011;32049;52.346;4.870;2022-08-19T11:30:49;8.90;;;4.57;;
46330;SDS011;32049;52.346;4.870;2022-08-19T11:34:05;7.30;;;4.57;;
46330;SDS011;32049;52.346;4.870;2022-08-19T11:37:11;7.32;;;3.70;;
46330;SDS011;32049;52.346;4.870;2022-08-19T11:40:18;9.07;;;3.70;;
46330;SDS011;32049;52.346;4.870;2022-08-19T11:43:17;8.98;;;3.63;;
46330;SDS011;32049;52.346;4.870;2022-08-19T11:47:19;6.05;;;3.50;;
46330;SDS011;32049;52.346;4.870;2022-08-19T11:50:36;14.85;;;3.53;;
46330;SDS011;32049;52.346;4.870;2022-08-19T11:53:45;4.82;;;2.97;;
46330;SDS011;32049;52.346;4.870;2022-08-19T12:03:29;6.18;;;3.25;;
46330;SDS011;32049;52.346;4.870;2022-08-19T12:06:22;7.93;;;3.40;;
46330;SDS011;32049;52.346;4.870;2022-08-19T12:09:15;4.82;;;2.28;;
46330;SDS011;32049;52.346;4.870;2022-08-19T12:12:04;4.03;;;2.58;;
46330;SDS011;32049;52.346;4.870;2022-08-19T12:14:52;5.20;;;2.30;;
46330;SDS011;32049;52.346;4.870;2022-08-19T12:17:43;5.15;;;2.28;;
46330;SDS011;32049;52.346;4.870;2022-08-19T12:20:30;3.92;;;1.98;;
46330;SDS011;32049;52.346;4.870;2022-08-19T12:23:22;4.53;;;2.13;;
46330;SDS011;32049;52.346;4.870;2022-08-19T12:26:10;5.30;;;2.25;;
46330;SDS011;32049;52.346;4.870;2022-08-19T12:28:58;5.28;;;2.60;;
46330;SDS011;32049;52.346;4.870;2022-08-19T12:31:46;4.47;;;1.60;;
46330;SDS011;32049;52.346;4.870;2022-08-19T12:34:34;4.10;;;1.60;;
46330;SDS011;32049;52.346;4.870;2022-08-19T12:37:23;3.10;;;1.42;;
46330;SDS011;32049;52.346;4.870;2022-08-19T12:40:11;4.32;;;1.70;;
46330;SDS011;32049;52.346;4.870;2022-08-19T12:42:58;4.88;;;1.60;;
46330;SDS011;32049;52.346;4.870;2022-08-19T12:45:46;2.95;;;1.73;;
46330;SDS011;32049;52.346;4.870;2022-08-19T12:48:34;3.67;;;1.67;;
46330;SDS011;32049;52.346;4.870;2022-08-19T12:51:41;3.00;;;1.38;;
46330;SDS011;32049;52.346;4.870;2022-08-19T12:54:30;3.42;;;1.30;;
46330;SDS011;32049;52.346;4.870;2022-08-19T12:57:31;2.80;;;1.63;;
46330;SDS011;32049;52.346;4.870;2022-08-19T13:00:22;3.53;;;1.20;;
46330;SDS011;32049;52.346;4.870;2022-08-19T13:03:10;2.15;;;1.30;;
46330;SDS011;32049;52.346;4.870;2022-08-19T13:06:06;4.60;;;1.40;;
46330;SDS011;32049;52.346;4.870;2022-08-19T13:08:55;4.70;;;1.23;;
46330;SDS011;32049;52.346;4.870;2022-08-19T13:11:45;2.05;;;1.30;;
46330;SDS011;32049;52.346;4.870;2022-08-19T13:14:47;2.75;;;1.20;;
46330;SDS011;32049;52.346;4.870;2022-08-19T13:17:50;3.63;;;1.70;;
46330;SDS011;32049;52.346;4.870;2022-08-19T13:20:40;2.63;;;1.10;;
46330;SDS011;32049;52.346;4.870;2022-08-19T13:23:38;3.90;;;1.30;;
46330;SDS011;32049;52.346;4.870;2022-08-19T13:26:27;2.50;;;1.20;;
46330;SDS011;32049;52.346;4.870;2022-08-19T13:29:14;5.97;;;1.30;;
46330;SDS011;32049;52.346;4.870;2022-08-19T13:32:20;2.55;;;1.40;;
46330;SDS011;32049;52.346;4.870;2022-08-19T13:35:27;3.05;;;1.30;;
46330;SDS011;32049;52.346;4.870;2022-08-19T13:39:45;4.53;;;1.50;;
46330;SDS011;32049;52.346;4.870;2022-08-19T13:42:54;2.83;;;1.33;;
46330;SDS011;32049;52.346;4.870;2022-08-19T13:46:23;3.28;;;1.67;;
46330;SDS011;32049;52.346;4.870;2022-08-19T13:49:56;2.05;;;1.13;;
46330;SDS011;32049;52.346;4.870;2022-08-19T13:53:23;1.20;;;1.10;;
46330;SDS011;32049;52.346;4.870;2022-08-19T13:56:43;3.97;;;1.52;;
46330;SDS011;32049;52.346;4.870;2022-08-19T13:59:37;1.98;;;1.20;;
46330;SDS011;32049;52.346;4.870;2022-08-19T14:02:33;5.03;;;1.25;;
46330;SDS011;32049;52.346;4.870;2022-08-19T14:06:05;1.33;;;1.08;;
46330;SDS011;32049;52.346;4.870;2022-08-19T14:09:27;1.80;;;1.15;;
46330;SDS011;32049;52.346;4.870;2022-08-19T14:12:31;2.50;;;1.27;;
46330;SDS011;32049;52.346;4.870;2022-08-19T14:15:58;2.35;;;1.30;;
46330;SDS011;32049;52.346;4.870;2022-08-19T14:19:00;3.33;;;1.25;;
46330;SDS011;32049;52.346;4.870;2022-08-19T14:22:15;2.13;;;1.23;;
46330;SDS011;32049;52.346;4.870;2022-08-19T14:28:51;3.80;;;1.33;;
46330;SDS011;32049;52.346;4.870;2022-08-19T14:35:47;2.80;;;1.70;;
46330;SDS011;32049;52.346;4.870;2022-08-19T14:39:02;2.70;;;1.30;;
46330;SDS011;32049;52.346;4.870;2022-08-19T14:42:13;1.92;;;1.40;;
46330;SDS011;32049;52.346;4.870;2022-08-19T14:45:33;2.28;;;1.50;;
46330;SDS011;32049;52.346;4.870;2022-08-19T14:48:37;2.58;;;1.70;;
46330;SDS011;32049;52.346;4.870;2022-08-19T14:51:52;5.80;;;2.13;;
46330;SDS011;32049;52.346;4.870;2022-08-19T14:54:58;5.10;;;1.92;;
46330;SDS011;32049;52.346;4.870;2022-08-19T14:58:12;3.03;;;1.65;;
46330;SDS011;32049;52.346;4.870;2022-08-19T15:01:38;3.50;;;1.92;;
46330;SDS011;32049;52.346;4.870;2022-08-19T15:05:13;4.13;;;2.28;;
46330;SDS011;32049;52.346;4.870;2022-08-19T15:08:42;3.20;;;1.90;;
46330;SDS011;32049;52.346;4.870;2022-08-19T15:16:32;4.32;;;2.40;;
46330;SDS011;32049;52.346;4.870;2022-08-19T15:19:56;3.30;;;1.70;;
46330;SDS011;32049;52.346;4.870;2022-08-19T15:23:10;2.15;;;1.60;;
46330;SDS011;32049;52.346;4.870;2022-08-19T15:26:21;1.83;;;1.35;;
46330;SDS011;32049;52.346;4.870;2022-08-19T15:33:11;3.05;;;1.30;;
46330;SDS011;32049;52.346;4.870;2022-08-19T15:36:20;1.92;;;1.15;;
46330;SDS011;32049;52.346;4.870;2022-08-19T15:39:08;2.50;;;1.70;;
46330;SDS011;32049;52.346;4.870;2022-08-19T15:41:56;3.03;;;1.40;;
46330;SDS011;32049;52.346;4.870;2022-08-19T15:44:47;5.15;;;1.52;;
46330;SDS011;32049;52.346;4.870;2022-08-19T15:47:36;3.45;;;1.60;;
46330;SDS011;32049;52.346;4.870;2022-08-19T15:50:24;3.15;;;1.45;;
46330;SDS011;32049;52.346;4.870;2022-08-19T15:53:12;3.45;;;1.75;;
46330;SDS011;32049;52.346;4.870;2022-08-19T15:56:15;2.45;;;1.80;;
46330;SDS011;32049;52.346;4.870;2022-08-19T15:59:03;2.95;;;1.60;;
46330;SDS011;32049;52.346;4.870;2022-08-19T16:02:30;3.17;;;1.73;;
46330;SDS011;32049;52.346;4.870;2022-08-19T16:05:39;2.13;;;1.52;;
46330;SDS011;32049;52.346;4.870;2022-08-19T16:15:19;1.42;;;1.15;;
46330;SDS011;32049;52.346;4.870;2022-08-19T16:18:07;2.38;;;1.27;;
46330;SDS011;32049;52.346;4.870;2022-08-19T16:21:03;1.73;;;1.23;;
46330;SDS011;32049;52.346;4.870;2022-08-19T16:23:53;3.10;;;1.40;;
46330;SDS011;32049;52.346;4.870;2022-08-19T16:26:41;3.28;;;1.80;;
46330;SDS011;32049;52.346;4.870;2022-08-19T16:29:41;3.47;;;2.03;;
46330;SDS011;32049;52.346;4.870;2022-08-19T16:32:29;1.40;;;1.30;;
46330;SDS011;32049;52.346;4.870;2022-08-19T16:35:16;2.38;;;0.98;;
46330;SDS011;32049;52.346;4.870;2022-08-19T16:38:04;2.30;;;1.17;;
46330;SDS011;32049;52.346;4.870;2022-08-19T16:42:42;0.82;;;0.82;;
46330;SDS011;32049;52.346;4.870;2022-08-19T16:45:41;1.63;;;1.17;;
46330;SDS011;32049;52.346;4.870;2022-08-19T16:48:55;1.90;;;0.98;;
46330;SDS011;32049;52.346;4.870;2022-08-19T16:52:32;2.65;;;1.10;;
46330;SDS011;32049;52.346;4.870;2022-08-19T16:55:38;1.45;;;0.88;;
46330;SDS011;32049;52.346;4.870;2022-08-19T16:59:23;1.77;;;0.80;;
46330;SDS011;32049;52.346;4.870;2022-08-19T17:02:20;1.77;;;0.90;;
46330;SDS011;32049;52.346;4.870;2022-08-19T17:08:58;1.98;;;0.85;;
46330;SDS011;32049;52.346;4.870;2022-08-19T17:12:25;0.98;;;0.70;;
46330;SDS011;32049;52.346;4.870;2022-08-19T17:15:32;2.42;;;0.77;;
46330;SDS011;32049;52.346;4.870;2022-08-19T17:18:20;1.25;;;0.77;;
46330;SDS011;32049;52.346;4.870;2022-08-19T17:21:09;1.08;;;0.70;;
46330;SDS011;32049;52.346;4.870;2022-08-19T17:24:03;0.60;;;0.60;;
46330;SDS011;32049;52.346;4.870;2022-08-19T17:31:41;0.70;;;0.70;;
46330;SDS011;32049;52.346;4.870;2022-08-19T17:34:31;0.60;;;0.60;;
46330;SDS011;32049;52.346;4.870;2022-08-19T17:38:05;0.90;;;0.80;;
46330;SDS011;32049;52.346;4.870;2022-08-19T17:41:20;1.15;;;0.70;;
46330;SDS011;32049;52.346;4.870;2022-08-19T17:44:30;3.67;;;1.50;;
46330;SDS011;32049;52.346;4.870;2022-08-19T17:47:38;2.05;;;0.90;;
46330;SDS011;32049;52.346;4.870;2022-08-19T17:50:51;2.33;;;1.27;;
46330;SDS011;32049;52.346;4.870;2022-08-19T17:54:17;1.15;;;1.05;;
46330;SDS011;32049;52.346;4.870;2022-08-19T17:57:20;4.03;;;1.52;;
46330;SDS011;32049;52.346;4.870;2022-08-19T18:00:44;3.88;;;1.85;;
46330;SDS011;32049;52.346;4.870;2022-08-19T18:03:42;1.75;;;1.33;;
46330;SDS011;32049;52.346;4.870;2022-08-19T18:06:43;1.77;;;1.25;;
46330;SDS011;32049;52.346;4.870;2022-08-19T18:10:22;3.25;;;1.27;;
46330;SDS011;32049;52.346;4.870;2022-08-19T18:13:29;4.30;;;1.63;;
46330;SDS011;32049;52.346;4.870;2022-08-19T18:16:22;1.70;;;1.60;;
46330;SDS011;32049;52.346;4.870;2022-08-19T18:19:15;2.25;;;1.38;;
46330;SDS011;32049;52.346;4.870;2022-08-19T18:22:27;1.60;;;1.50;;
46330;SDS011;32049;52.346;4.870;2022-08-19T18:26:01;2.45;;;1.65;;
46330;SDS011;32049;52.346;4.870;2022-08-19T18:29:34;3.88;;;1.30;;
46330;SDS011;32049;52.346;4.870;2022-08-19T18:32:49;4.10;;;1.50;;
46330;SDS011;32049;52.346;4.870;2022-08-19T18:35:46;2.63;;;1.65;;
46330;SDS011;32049;52.346;4.870;2022-08-19T18:39:22;2.42;;;1.55;;
46330;SDS011;32049;52.346;4.870;2022-08-19T18:43:02;2.90;;;1.73;;
46330;SDS011;32049;52.346;4.870;2022-08-19T18:46:10;2.33;;;1.80;;
46330;SDS011;32049;52.346;4.870;2022-08-19T18:49:25;2.85;;;2.10;;
46330;SDS011;32049;52.346;4.870;2022-08-19T18:52:56;2.75;;;1.98;;
46330;SDS011;32049;52.346;4.870;2022-08-19T19:05:56;5.18;;;2.30;;
46330;SDS011;32049;52.346;4.870;2022-08-19T19:09:09;3.40;;;2.30;;
46330;SDS011;32049;52.346;4.870;2022-08-19T19:12:39;5.38;;;2.40;;
46330;SDS011;32049;52.346;4.870;2022-08-19T19:15:52;2.63;;;2.07;;
46330;SDS011;32049;52.346;4.870;2022-08-19T19:19:00;5.20;;;3.23;;
46330;SDS011;32049;52.346;4.870;2022-08-19T19:25:33;4.45;;;3.00;;
46330;SDS011;32049;52.346;4.870;2022-08-19T19:28:52;4.67;;;2.70;;
46330;SDS011;32049;52.346;4.870;2022-08-19T19:32:07;2.77;;;2.20;;
46330;SDS011;32049;52.346;4.870;2022-08-19T19:35:40;5.97;;;3.70;;
46330;SDS011;32049;52.346;4.870;2022-08-19T19:38:47;4.50;;;3.30;;
46330;SDS011;32049;52.346;4.870;2022-08-19T19:50:17;6.57;;;4.07;;
46330;SDS011;32049;52.346;4.870;2022-08-19T19:59:34;5.15;;;3.65;;
46330;SDS011;32049;52.346;4.870;2022-08-19T20:07:04;4.32;;;3.63;;
46330;SDS011;32049;52.346;4.870;2022-08-19T20:10:34;5.22;;;3.90;;
46330;SDS011;32049;52.346;4.870;2022-08-19T20:14:34;6.15;;;3.33;;
46330;SDS011;32049;52.346;4.870;2022-08-19T20:17:43;6.00;;;4.35;;
46330;SDS011;32049;52.346;4.870;2022-08-19T20:21:15;5.13;;;3.80;;
46330;SDS011;32049;52.346;4.870;2022-08-19T20:24:05;5.18;;;3.20;;
46330;SDS011;32049;52.346;4.870;2022-08-19T20:27:26;4.10;;;3.07;;
46330;SDS011;32049;52.346;4.870;2022-08-19T20:30:29;9.02;;;3.35;;
46330;SDS011;32049;52.346;4.870;2022-08-19T20:33:32;7.60;;;4.07;;
46330;SDS011;32049;52.346;4.870;2022-08-19T20:37:03;5.30;;;2.97;;
46330;SDS011;32049;52.346;4.870;2022-08-19T20:39:51;2.97;;;2.60;;
46330;SDS011;32049;52.346;4.870;2022-08-19T20:42:40;3.22;;;2.30;;
46330;SDS011;32049;52.346;4.870;2022-08-19T20:45:28;3.35;;;2.17;;
46330;SDS011;32049;52.346;4.870;2022-08-19T20:48:19;5.78;;;3.03;;
46330;SDS011;32049;52.346;4.870;2022-08-19T20:51:07;4.15;;;2.70;;